This is the latest recevied weather packets stored in our database for station/object PP5CFL-13. If no packets are shown the sender has not sent any weather packets the latest 10 day(s).
| Time | Temp. | Humidity | Pressure | Rain* | Wind** | Luminosity | Snow |
|---|---|---|---|---|---|---|---|
| 1778166525 | 25° C | 82% | 1014.2 hPa | - | - | - | - |
| 1778166225 | 25° C | 84% | 1014.3 hPa | - | - | - | - |
| 1778165925 | 25° C | 85% | 1014.4 hPa | - | - | - | - |
| 1778165625 | 24.44° C | 86% | 1014.6 hPa | - | - | - | - |
| 1778165325 | 24.44° C | 87% | 1014.8 hPa | - | - | - | - |
| 1778165025 | 23.89° C | 88% | 1014.9 hPa | - | - | - | - |
| 1778164725 | 24.44° C | 86% | 1014.8 hPa | - | - | - | - |
| 1778164425 | 24.44° C | 87% | 1015 hPa | - | - | - | - |
| 1778164125 | 23.89° C | 87% | 1015.1 hPa | - | - | - | - |
| 1778163825 | 23.89° C | 88% | 1015.2 hPa | - | - | - | - |
| 1778163525 | 23.89° C | 88% | 1015.3 hPa | - | - | - | - |
| 1778163225 | 23.89° C | 88% | 1015.5 hPa | - | - | - | - |
| 1778162925 | 23.89° C | 87% | 1015.4 hPa | - | - | - | - |
| 1778162625 | 23.89° C | 88% | 1015.6 hPa | - | - | - | - |
| 1778162325 | 24.44° C | 87% | 1015.7 hPa | - | - | - | - |
| 1778162025 | 24.44° C | 88% | 1015.8 hPa | - | - | - | - |
| 1778161725 | 24.44° C | 87% | 1015.9 hPa | - | - | - | - |
| 1778161425 | 23.89° C | 90% | 1016 hPa | - | - | - | - |
| 1778161125 | 25° C | 86% | 1016.2 hPa | - | - | - | - |
| 1778160825 | 23.89° C | 89% | 1016.3 hPa | - | - | - | - |
| 1778160525 | 24.44° C | 88% | 1016.4 hPa | - | - | - | - |
| 1778160225 | 24.44° C | 87% | 1016.5 hPa | - | - | - | - |
| 1778159925 | 25.56° C | 83% | 1016.5 hPa | - | - | - | - |
| 1778159625 | 25° C | 85% | 1016.5 hPa | - | - | - | - |
| 1778159325 | 25° C | 85% | 1016.6 hPa | - | - | - | - |
* Rain since midnight (hover to see other rain measurements)
** Current wind speed in m/s (hover to see current wind gust speed)